Time;durP1;ratioP1;P1;durP2;ratioP2;P2;SDS_P1;SDS_P2;PMS_P1;PMS_P2;Temp;Humidity;BMP_temperature;BMP_pressure;BME280_temperature;BME280_humidity;BME280_pressure;Samples;Min_cycle;Max_cycle;Signal;HPM_P1;HPM_P2
2023/04/24 19:44:49;;;;;;;1.47;1.20;;;;;;;9.67;85.23;95740.59;5072353;27;20540;-68
2023/04/24 19:47:16;;;;;;;0.60;0.50;;;;;;;9.26;85.65;95742.06;5071829;28;20266;-67
2023/04/24 19:49:42;;;;;;;0.50;0.50;;;;;;;9.18;85.77;95745.59;5071243;28;20204;-71
2023/04/24 19:52:09;;;;;;;0.47;0.47;;;;;;;9.21;85.91;95747.06;5071337;28;20256;-69
2023/04/24 19:54:35;;;;;;;0.47;0.47;;;;;;;9.11;87.02;95744.69;5072434;28;20231;-69
2023/04/24 19:57:02;;;;;;;0.80;0.77;;;;;;;9.13;86.40;95745.31;5071003;28;20215;-70
2023/04/24 19:59:29;;;;;;;0.47;0.47;;;;;;;9.10;86.20;95748.31;5071434;28;20214;-68
2023/04/24 20:01:57;;;;;;;0.87;0.83;;;;;;;9.04;86.35;95747.38;5071924;28;20223;-72
2023/04/24 20:04:23;;;;;;;1.03;0.63;;;;;;;8.97;86.23;95746.47;5071742;28;20231;-72
2023/04/24 20:06:50;;;;;;;0.60;0.60;;;;;;;8.99;85.85;95745.31;5071991;28;20204;-72
2023/04/24 20:09:16;;;;;;;0.70;0.70;;;;;;;9.04;85.38;95736.88;5071737;28;20271;-70
2023/04/24 20:11:44;;;;;;;0.40;0.40;;;;;;;9.12;84.66;95748.94;5071725;28;20207;-72
2023/04/24 20:14:10;;;;;;;0.30;0.30;;;;;;;9.22;82.25;95749.50;5071279;28;20220;-72
2023/04/24 20:16:37;;;;;;;1.30;1.03;;;;;;;9.32;81.40;95747.44;5070315;28;20200;-72
2023/04/24 20:19:05;;;;;;;0.33;0.33;;;;;;;9.55;79.94;95750.78;5071616;28;20262;-71
2023/04/24 20:21:31;;;;;;;0.57;0.57;;;;;;;9.48;79.94;95746.41;5072135;28;20200;-69
2023/04/24 20:23:58;;;;;;;0.43;0.43;;;;;;;9.29;80.35;95754.84;5070720;28;20646;-71
2023/04/24 20:26:24;;;;;;;0.40;0.40;;;;;;;9.35;80.35;95746.25;5071655;28;20208;-72
2023/04/24 20:28:51;;;;;;;0.40;0.40;;;;;;;9.37;79.37;95750.31;5071370;28;20207;-72
2023/04/24 20:31:18;;;;;;;0.47;0.40;;;;;;;9.36;79.63;95747.88;5071230;28;20207;-72
2023/04/24 20:33:45;;;;;;;0.70;0.70;;;;;;;9.47;78.35;95750.88;5071163;28;20220;-69
2023/04/24 20:36:12;;;;;;;0.37;0.37;;;;;;;9.68;77.27;95742.25;5072232;28;20292;-69
2023/04/24 20:38:39;;;;;;;0.87;0.70;;;;;;;9.70;77.10;95747.13;5070587;28;20215;-72
2023/04/24 20:41:07;;;;;;;0.37;0.37;;;;;;;9.81;76.33;95738.78;5071574;28;20298;-70
2023/04/24 20:43:34;;;;;;;0.77;0.50;;;;;;;9.89;76.05;95751.81;5071049;28;20235;-70
2023/04/24 20:46:00;;;;;;;0.40;0.40;;;;;;;9.89;76.12;95746.56;5071898;28;20561;-72
2023/04/24 20:48:27;;;;;;;0.70;0.70;;;;;;;9.85;76.64;95755.00;5068946;28;20200;-70
2023/04/24 20:50:54;;;;;;;2.80;0.80;;;;;;;9.93;76.01;95755.72;5072084;28;20203;-70
2023/04/24 20:53:23;;;;;;;0.30;0.30;;;;;;;10.01;76.14;95745.09;5069495;28;20260;-71
2023/04/24 20:55:49;;;;;;;0.43;0.43;;;;;;;9.88;76.92;95750.19;5059024;28;20208;-71
2023/04/24 20:58:17;;;;;;;0.50;0.50;;;;;;;9.99;76.67;95752.38;5057295;28;20200;-71
2023/04/24 21:00:43;;;;;;;1.53;0.90;;;;;;;10.00;78.26;95748.72;5057117;28;20240;-70
2023/04/24 21:03:10;;;;;;;0.50;0.50;;;;;;;9.95;78.60;95748.47;5057047;28;20612;-71
2023/04/24 21:05:36;;;;;;;0.87;0.87;;;;;;;10.01;80.36;95750.38;5057192;28;20262;-71
2023/04/24 21:08:03;;;;;;;0.60;0.50;;;;;;;10.01;79.67;95758.25;5057121;28;20201;-69
2023/04/24 21:10:31;;;;;;;0.73;0.73;;;;;;;9.92;79.24;95754.06;5057498;28;20254;-72
2023/04/24 21:12:57;;;;;;;1.30;1.10;;;;;;;9.99;79.63;95760.28;5057298;28;20680;-71
2023/04/24 21:15:24;;;;;;;0.67;0.67;;;;;;;9.90;80.92;95756.09;5056971;28;20204;-72
2023/04/24 21:17:50;;;;;;;0.67;0.67;;;;;;;10.01;79.99;95744.31;5057282;28;20219;-69
2023/04/24 21:20:17;;;;;;;0.40;0.40;;;;;;;10.01;78.83;95744.31;5057186;28;20212;-72
2023/04/24 21:22:44;;;;;;;0.30;0.30;;;;;;;10.05;78.56;95750.81;5057254;28;20204;-72
2023/04/24 21:25:10;;;;;;;0.57;0.53;;;;;;;10.06;79.15;95747.19;5056972;28;20323;-70
2023/04/24 21:27:38;;;;;;;0.60;0.60;;;;;;;10.08;80.72;95740.75;5056389;28;20200;-70
2023/04/24 21:30:06;;;;;;;1.77;1.00;;;;;;;10.06;81.25;95739.31;5056819;28;20208;-71
2023/04/24 21:32:32;;;;;;;0.77;0.73;;;;;;;10.03;81.89;95737.84;5056768;28;20219;-71
2023/04/24 21:34:59;;;;;;;0.60;0.60;;;;;;;9.92;83.67;95732.22;5057252;28;20224;-71
2023/04/24 21:37:25;;;;;;;1.00;0.90;;;;;;;9.84;82.09;95730.50;5056175;28;20212;-72
2023/04/24 21:39:52;;;;;;;0.93;0.73;;;;;;;9.72;81.93;95726.72;5057053;28;20454;-71
2023/04/24 21:42:18;;;;;;;0.40;0.40;;;;;;;9.84;81.57;95722.63;5055973;28;20712;-71
2023/04/24 21:44:46;;;;;;;0.50;0.50;;;;;;;9.85;81.13;95723.41;5057270;28;20618;-70
2023/04/24 21:47:12;;;;;;;0.77;0.53;;;;;;;9.78;81.68;95715.44;5056572;28;20202;-71
2023/04/24 21:49:39;;;;;;;0.40;0.40;;;;;;;9.80;82.53;95716.09;5056595;28;20196;-71
2023/04/24 21:52:06;;;;;;;0.60;0.60;;;;;;;9.73;81.05;95724.91;5056376;28;20235;-69
2023/04/24 21:54:33;;;;;;;0.83;0.80;;;;;;;9.68;81.37;95721.19;5057265;28;20225;-71
2023/04/24 21:57:01;;;;;;;0.53;0.50;;;;;;;9.74;83.46;95710.75;5056197;28;20200;-71
2023/04/24 21:59:27;;;;;;;0.80;0.80;;;;;;;9.70;83.77;95710.31;5056139;28;20262;-69
2023/04/24 22:01:55;;;;;;;0.57;0.53;;;;;;;9.73;84.32;95709.91;5057101;28;20201;-72
2023/04/24 22:04:22;;;;;;;0.30;0.30;;;;;;;9.68;83.57;95708.03;5056234;28;20228;-70
2023/04/24 22:06:48;;;;;;;0.50;0.50;;;;;;;9.59;82.25;95719.69;5055264;28;20266;-70
2023/04/24 22:09:14;;;;;;;0.80;0.50;;;;;;;9.65;80.61;95719.75;5056241;28;20616;-70
2023/04/24 22:11:41;;;;;;;0.20;0.20;;;;;;;9.66;82.67;95717.94;5056245;28;20760;-68
2023/04/24 22:14:07;;;;;;;2.43;0.70;;;;;;;9.75;82.10;95723.72;5056748;28;20262;-69
2023/04/24 22:16:34;;;;;;;0.73;0.53;;;;;;;9.73;82.30;95715.19;5056240;28;20672;-71
2023/04/24 22:19:03;;;;;;;0.63;0.63;;;;;;;9.84;83.92;95712.09;5055955;28;20676;-72
2023/04/24 22:21:30;;;;;;;0.90;0.60;;;;;;;9.73;82.22;95712.56;5056320;28;20236;-69
2023/04/24 22:23:56;;;;;;;0.50;0.50;;;;;;;9.70;82.98;95715.56;5056529;28;20394;-70
2023/04/24 22:26:23;;;;;;;0.50;0.50;;;;;;;9.68;81.23;95710.69;5056587;28;20212;-71
2023/04/24 22:28:49;;;;;;;0.47;0.47;;;;;;;9.67;82.16;95711.66;5056202;28;20602;-71
2023/04/24 22:31:16;;;;;;;1.70;0.80;;;;;;;9.53;82.22;95712.50;5056010;28;20224;-71
2023/04/24 22:33:44;;;;;;;0.67;0.67;;;;;;;9.59;83.13;95701.25;5056087;28;20605;-70
2023/04/24 22:36:12;;;;;;;1.17;0.80;;;;;;;9.54;83.63;95695.72;5056570;28;20217;-71
2023/04/24 22:38:39;;;;;;;0.53;0.53;;;;;;;9.45;83.55;95691.56;5055535;28;20204;-71
2023/04/24 22:41:06;;;;;;;0.87;0.47;;;;;;;9.33;82.91;95695.66;5056236;28;20208;-69
2023/04/24 22:43:32;;;;;;;0.40;0.40;;;;;;;9.32;84.53;95689.59;5055781;28;20258;-71
2023/04/24 22:45:59;;;;;;;0.53;0.53;;;;;;;9.28;83.94;95687.50;5056517;28;20208;-72
2023/04/24 22:48:25;;;;;;;0.50;0.50;;;;;;;9.15;84.42;95689.94;5055120;28;20211;-72
2023/04/24 22:50:52;;;;;;;0.80;0.80;;;;;;;9.19;83.38;95678.91;5056123;28;20211;-72
2023/04/24 22:53:20;;;;;;;0.60;0.60;;;;;;;9.25;84.01;95679.97;5055701;28;20224;-71
2023/04/24 22:55:46;;;;;;;0.83;0.83;;;;;;;9.15;85.28;95674.16;5055989;28;20224;-70
2023/04/24 22:58:13;;;;;;;1.00;0.87;;;;;;;9.02;85.84;95668.75;5054931;28;21017;-69
2023/04/24 23:00:39;;;;;;;2.00;0.80;;;;;;;8.98;86.07;95670.09;5055979;28;20687;-70
2023/04/24 23:03:06;;;;;;;0.80;0.77;;;;;;;8.99;86.00;95665.69;5055223;28;20204;-69
2023/04/24 23:05:32;;;;;;;0.53;0.53;;;;;;;8.81;86.04;95663.41;5056163;28;20331;-70
2023/04/24 23:07:59;;;;;;;0.60;0.60;;;;;;;8.76;85.70;95668.38;5055717;28;20208;-71
2023/04/24 23:10:27;;;;;;;1.43;0.70;;;;;;;8.72;86.22;95671.56;5055255;28;21471;-70
2023/04/24 23:12:53;;;;;;;0.77;0.67;;;;;;;8.63;86.49;95668.16;5055366;28;20208;-71
2023/04/24 23:15:19;;;;;;;1.40;0.73;;;;;;;8.48;86.74;95672.56;5056654;28;20691;-71
2023/04/24 23:17:46;;;;;;;0.50;0.50;;;;;;;8.38;87.38;95665.13;5055103;28;20867;-69
2023/04/24 23:20:13;;;;;;;0.50;0.50;;;;;;;8.34;88.08;95661.22;5055390;28;20249;-71
2023/04/24 23:22:40;;;;;;;0.50;0.50;;;;;;;8.35;88.97;95666.31;5056114;28;20296;-71
2023/04/24 23:25:08;;;;;;;3.40;0.67;;;;;;;8.38;88.24;95654.63;5055509;28;20228;-70
2023/04/24 23:27:36;;;;;;;0.93;0.73;;;;;;;8.33;88.94;95660.41;5054656;28;20246;-71
2023/04/24 23:30:03;;;;;;;0.67;0.67;;;;;;;8.18;88.51;95661.34;5055725;28;20208;-69
2023/04/24 23:32:29;;;;;;;1.10;1.00;;;;;;;7.93;90.19;95660.69;5055613;28;20219;-70
2023/04/24 23:34:56;;;;;;;0.40;0.40;;;;;;;7.83;91.30;95656.69;5055562;28;20220;-71
2023/04/24 23:37:22;;;;;;;0.50;0.50;;;;;;;8.00;91.20;95658.19;5054675;28;20255;-71
2023/04/24 23:39:49;;;;;;;0.20;0.20;;;;;;;7.94;89.66;95658.88;5055886;28;20207;-71
2023/04/24 23:42:16;;;;;;;0.40;0.40;;;;;;;7.98;88.65;95654.91;5055224;28;20628;-71
2023/04/24 23:44:44;;;;;;;0.47;0.47;;;;;;;8.00;89.38;95656.38;5055304;28;20247;-71
2023/04/24 23:47:10;;;;;;;0.40;0.40;;;;;;;7.97;89.21;95658.53;5055942;28;20614;-71
2023/04/24 23:49:37;;;;;;;0.47;0.47;;;;;;;7.86;90.53;95648.44;5055349;28;20207;-69
2023/04/24 23:52:04;;;;;;;0.47;0.47;;;;;;;7.86;91.24;95652.88;5054696;28;20200;-71
2023/04/24 23:54:30;;;;;;;0.83;0.50;;;;;;;7.99;90.71;95648.69;5055650;28;20227;-71
2023/04/24 23:56:56;;;;;;;0.37;0.37;;;;;;;8.03;89.80;95652.56;5055895;28;20201;-71
2023/04/24 23:59:23;;;;;;;0.67;0.67;;;;;;;8.00;90.33;95659.00;5054634;28;20211;-71
